sensor_id;sensor_type;location;lat;lon;timestamp;P1;durP1;ratioP1;P2;durP2;ratioP2
60847;SDS011;46681;47.696;9.140;2023-03-23T00:00:30;2.43;;;1.57;;
60847;SDS011;46681;47.696;9.140;2023-03-23T00:02:56;2.50;;;1.47;;
60847;SDS011;46681;47.696;9.140;2023-03-23T00:05:23;1.73;;;1.63;;
60847;SDS011;46681;47.696;9.140;2023-03-23T00:07:50;2.80;;;2.10;;
60847;SDS011;46681;47.696;9.140;2023-03-23T00:10:16;2.33;;;1.37;;
60847;SDS011;46681;47.696;9.140;2023-03-23T00:12:45;1.47;;;1.37;;
60847;SDS011;46681;47.696;9.140;2023-03-23T00:15:11;2.03;;;1.60;;
60847;SDS011;46681;47.696;9.140;2023-03-23T00:17:36;1.40;;;1.30;;
60847;SDS011;46681;47.696;9.140;2023-03-23T00:20:11;2.83;;;1.30;;
60847;SDS011;46681;47.696;9.140;2023-03-23T00:22:41;2.20;;;1.40;;
60847;SDS011;46681;47.696;9.140;2023-03-23T00:25:11;1.30;;;1.23;;
60847;SDS011;46681;47.696;9.140;2023-03-23T00:27:41;1.60;;;1.50;;
60847;SDS011;46681;47.696;9.140;2023-03-23T00:30:08;1.80;;;1.70;;
60847;SDS011;46681;47.696;9.140;2023-03-23T00:32:35;2.37;;;1.63;;
60847;SDS011;46681;47.696;9.140;2023-03-23T00:35:02;1.63;;;1.53;;
60847;SDS011;46681;47.696;9.140;2023-03-23T00:37:31;1.63;;;1.53;;
60847;SDS011;46681;47.696;9.140;2023-03-23T00:39:58;1.60;;;1.50;;
60847;SDS011;46681;47.696;9.140;2023-03-23T00:42:27;2.20;;;1.50;;
60847;SDS011;46681;47.696;9.140;2023-03-23T00:44:52;2.07;;;1.63;;
60847;SDS011;46681;47.696;9.140;2023-03-23T00:47:18;1.70;;;1.60;;
60847;SDS011;46681;47.696;9.140;2023-03-23T00:49:46;1.80;;;1.70;;
60847;SDS011;46681;47.696;9.140;2023-03-23T00:52:17;1.77;;;1.67;;
60847;SDS011;46681;47.696;9.140;2023-03-23T00:54:42;1.67;;;1.57;;
60847;SDS011;46681;47.696;9.140;2023-03-23T00:57:08;1.93;;;1.80;;
60847;SDS011;46681;47.696;9.140;2023-03-23T00:59:34;1.90;;;1.80;;
60847;SDS011;46681;47.696;9.140;2023-03-23T01:02:02;1.67;;;1.57;;
60847;SDS011;46681;47.696;9.140;2023-03-23T01:04:34;1.90;;;1.80;;
60847;SDS011;46681;47.696;9.140;2023-03-23T01:07:11;2.00;;;1.77;;
60847;SDS011;46681;47.696;9.140;2023-03-23T01:09:37;1.70;;;1.60;;
60847;SDS011;46681;47.696;9.140;2023-03-23T01:12:03;1.70;;;1.60;;
60847;SDS011;46681;47.696;9.140;2023-03-23T01:14:32;1.60;;;1.50;;
60847;SDS011;46681;47.696;9.140;2023-03-23T01:17:03;2.00;;;1.90;;
60847;SDS011;46681;47.696;9.140;2023-03-23T01:19:29;2.57;;;1.97;;
60847;SDS011;46681;47.696;9.140;2023-03-23T01:21:55;2.07;;;1.87;;
60847;SDS011;46681;47.696;9.140;2023-03-23T01:24:32;1.43;;;1.40;;
60847;SDS011;46681;47.696;9.140;2023-03-23T01:26:57;1.67;;;1.57;;
60847;SDS011;46681;47.696;9.140;2023-03-23T01:29:23;1.80;;;1.70;;
60847;SDS011;46681;47.696;9.140;2023-03-23T01:31:50;1.77;;;1.67;;
60847;SDS011;46681;47.696;9.140;2023-03-23T01:34:21;1.77;;;1.67;;
60847;SDS011;46681;47.696;9.140;2023-03-23T01:36:48;1.80;;;1.70;;
60847;SDS011;46681;47.696;9.140;2023-03-23T01:39:14;2.27;;;1.80;;
60847;SDS011;46681;47.696;9.140;2023-03-23T01:41:39;1.80;;;1.70;;
60847;SDS011;46681;47.696;9.140;2023-03-23T01:44:07;1.90;;;1.80;;
60847;SDS011;46681;47.696;9.140;2023-03-23T01:46:53;2.00;;;1.90;;
60847;SDS011;46681;47.696;9.140;2023-03-23T01:49:24;1.80;;;1.70;;
60847;SDS011;46681;47.696;9.140;2023-03-23T01:52:16;1.80;;;1.70;;
60847;SDS011;46681;47.696;9.140;2023-03-23T01:54:50;2.10;;;2.00;;
60847;SDS011;46681;47.696;9.140;2023-03-23T01:57:22;2.03;;;1.93;;
60847;SDS011;46681;47.696;9.140;2023-03-23T01:59:50;2.77;;;2.10;;
60847;SDS011;46681;47.696;9.140;2023-03-23T02:02:20;2.20;;;2.00;;
60847;SDS011;46681;47.696;9.140;2023-03-23T02:04:48;2.20;;;2.00;;
60847;SDS011;46681;47.696;9.140;2023-03-23T02:07:14;1.90;;;1.80;;
60847;SDS011;46681;47.696;9.140;2023-03-23T02:09:43;2.00;;;1.90;;
60847;SDS011;46681;47.696;9.140;2023-03-23T02:12:09;2.20;;;2.10;;
60847;SDS011;46681;47.696;9.140;2023-03-23T02:14:35;2.23;;;2.13;;
60847;SDS011;46681;47.696;9.140;2023-03-23T02:17:03;2.43;;;2.23;;
60847;SDS011;46681;47.696;9.140;2023-03-23T02:28:27;2.10;;;2.00;;
60847;SDS011;46681;47.696;9.140;2023-03-23T02:33:34;2.07;;;1.97;;
60847;SDS011;46681;47.696;9.140;2023-03-23T02:39:10;1.80;;;1.70;;
60847;SDS011;46681;47.696;9.140;2023-03-23T02:41:58;2.00;;;1.90;;
60847;SDS011;46681;47.696;9.140;2023-03-23T02:44:33;2.50;;;2.30;;
60847;SDS011;46681;47.696;9.140;2023-03-23T02:47:04;2.97;;;2.30;;
60847;SDS011;46681;47.696;9.140;2023-03-23T02:49:34;2.23;;;2.07;;
60847;SDS011;46681;47.696;9.140;2023-03-23T02:52:11;1.93;;;1.83;;
60847;SDS011;46681;47.696;9.140;2023-03-23T02:54:48;1.90;;;1.80;;
60847;SDS011;46681;47.696;9.140;2023-03-23T02:57:34;1.97;;;1.87;;
60847;SDS011;46681;47.696;9.140;2023-03-23T03:00:04;2.00;;;1.90;;
60847;SDS011;46681;47.696;9.140;2023-03-23T03:02:32;2.40;;;2.20;;
60847;SDS011;46681;47.696;9.140;2023-03-23T03:14:29;2.67;;;1.90;;
60847;SDS011;46681;47.696;9.140;2023-03-23T03:16:56;2.53;;;2.33;;
60847;SDS011;46681;47.696;9.140;2023-03-23T03:19:48;2.33;;;2.13;;
60847;SDS011;46681;47.696;9.140;2023-03-23T03:22:38;2.10;;;1.90;;
60847;SDS011;46681;47.696;9.140;2023-03-23T03:25:07;2.80;;;2.00;;
60847;SDS011;46681;47.696;9.140;2023-03-23T03:27:35;2.23;;;2.03;;
60847;SDS011;46681;47.696;9.140;2023-03-23T03:30:02;2.60;;;2.40;;
60847;SDS011;46681;47.696;9.140;2023-03-23T03:32:54;5.90;;;2.13;;
60847;SDS011;46681;47.696;9.140;2023-03-23T03:35:21;2.47;;;2.07;;
60847;SDS011;46681;47.696;9.140;2023-03-23T03:37:52;2.30;;;2.10;;
60847;SDS011;46681;47.696;9.140;2023-03-23T03:40:20;2.57;;;2.37;;
60847;SDS011;46681;47.696;9.140;2023-03-23T03:42:48;2.20;;;2.10;;
60847;SDS011;46681;47.696;9.140;2023-03-23T03:45:18;3.30;;;2.37;;
60847;SDS011;46681;47.696;9.140;2023-03-23T03:47:46;2.50;;;2.30;;
60847;SDS011;46681;47.696;9.140;2023-03-23T03:50:12;2.60;;;2.40;;
60847;SDS011;46681;47.696;9.140;2023-03-23T03:52:41;3.53;;;2.60;;
60847;SDS011;46681;47.696;9.140;2023-03-23T03:55:09;2.53;;;2.33;;
60847;SDS011;46681;47.696;9.140;2023-03-23T03:57:36;3.63;;;2.30;;
60847;SDS011;46681;47.696;9.140;2023-03-23T04:00:03;3.17;;;2.87;;
60847;SDS011;46681;47.696;9.140;2023-03-23T04:02:34;3.47;;;2.73;;
60847;SDS011;46681;47.696;9.140;2023-03-23T04:05:00;3.00;;;2.63;;
60847;SDS011;46681;47.696;9.140;2023-03-23T04:07:25;3.07;;;2.77;;
60847;SDS011;46681;47.696;9.140;2023-03-23T04:09:52;3.07;;;2.80;;
60847;SDS011;46681;47.696;9.140;2023-03-23T04:12:21;2.97;;;2.77;;
60847;SDS011;46681;47.696;9.140;2023-03-23T04:14:48;2.87;;;2.67;;
60847;SDS011;46681;47.696;9.140;2023-03-23T04:17:15;2.90;;;2.70;;
60847;SDS011;46681;47.696;9.140;2023-03-23T04:19:41;3.10;;;2.90;;
60847;SDS011;46681;47.696;9.140;2023-03-23T04:22:07;3.60;;;3.30;;
60847;SDS011;46681;47.696;9.140;2023-03-23T04:24:32;4.53;;;3.27;;
60847;SDS011;46681;47.696;9.140;2023-03-23T04:27:00;3.33;;;2.97;;
60847;SDS011;46681;47.696;9.140;2023-03-23T04:29:26;3.67;;;3.23;;
60847;SDS011;46681;47.696;9.140;2023-03-23T04:31:53;3.63;;;2.70;;
60847;SDS011;46681;47.696;9.140;2023-03-23T04:34:22;3.27;;;2.87;;
60847;SDS011;46681;47.696;9.140;2023-03-23T04:36:51;3.37;;;3.17;;
60847;SDS011;46681;47.696;9.140;2023-03-23T04:39:21;3.40;;;3.20;;
60847;SDS011;46681;47.696;9.140;2023-03-23T04:41:48;3.60;;;2.97;;
60847;SDS011;46681;47.696;9.140;2023-03-23T04:44:15;4.33;;;3.30;;
60847;SDS011;46681;47.696;9.140;2023-03-23T04:46:44;3.60;;;3.30;;
60847;SDS011;46681;47.696;9.140;2023-03-23T04:49:10;3.53;;;3.23;;
60847;SDS011;46681;47.696;9.140;2023-03-23T04:51:44;3.67;;;3.37;;
60847;SDS011;46681;47.696;9.140;2023-03-23T04:54:10;3.20;;;2.90;;
60847;SDS011;46681;47.696;9.140;2023-03-23T04:56:36;4.57;;;3.23;;
60847;SDS011;46681;47.696;9.140;2023-03-23T04:59:02;3.20;;;3.00;;
60847;SDS011;46681;47.696;9.140;2023-03-23T05:01:30;3.67;;;3.37;;
60847;SDS011;46681;47.696;9.140;2023-03-23T05:03:57;9.80;;;3.57;;
60847;SDS011;46681;47.696;9.140;2023-03-23T05:06:23;3.67;;;3.10;;
60847;SDS011;46681;47.696;9.140;2023-03-23T05:08:50;3.00;;;2.80;;
60847;SDS011;46681;47.696;9.140;2023-03-23T05:11:19;3.27;;;2.97;;
60847;SDS011;46681;47.696;9.140;2023-03-23T05:13:45;3.50;;;3.20;;
60847;SDS011;46681;47.696;9.140;2023-03-23T05:16:12;3.83;;;3.53;;
60847;SDS011;46681;47.696;9.140;2023-03-23T05:18:41;3.53;;;3.23;;
60847;SDS011;46681;47.696;9.140;2023-03-23T05:21:10;3.20;;;3.00;;
60847;SDS011;46681;47.696;9.140;2023-03-23T05:23:36;3.57;;;3.27;;
60847;SDS011;46681;47.696;9.140;2023-03-23T05:26:05;3.67;;;3.30;;
60847;SDS011;46681;47.696;9.140;2023-03-23T05:28:37;3.87;;;3.40;;
60847;SDS011;46681;47.696;9.140;2023-03-23T05:31:07;3.63;;;3.33;;
60847;SDS011;46681;47.696;9.140;2023-03-23T05:33:35;4.87;;;3.63;;
60847;SDS011;46681;47.696;9.140;2023-03-23T05:36:01;3.57;;;3.27;;
60847;SDS011;46681;47.696;9.140;2023-03-23T05:38:28;4.33;;;3.90;;
60847;SDS011;46681;47.696;9.140;2023-03-23T05:41:00;5.17;;;3.60;;
60847;SDS011;46681;47.696;9.140;2023-03-23T05:43:30;3.60;;;3.30;;
60847;SDS011;46681;47.696;9.140;2023-03-23T05:45:57;3.57;;;3.33;;
60847;SDS011;46681;47.696;9.140;2023-03-23T05:48:25;5.07;;;3.23;;
60847;SDS011;46681;47.696;9.140;2023-03-23T05:50:53;3.37;;;2.97;;
60847;SDS011;46681;47.696;9.140;2023-03-23T05:53:21;5.73;;;3.37;;
60847;SDS011;46681;47.696;9.140;2023-03-23T05:55:52;3.80;;;3.33;;
60847;SDS011;46681;47.696;9.140;2023-03-23T05:58:22;5.07;;;3.43;;
60847;SDS011;46681;47.696;9.140;2023-03-23T06:00:54;4.77;;;3.80;;
60847;SDS011;46681;47.696;9.140;2023-03-23T06:06:20;3.20;;;2.90;;
60847;SDS011;46681;47.696;9.140;2023-03-23T06:08:48;3.20;;;3.00;;
60847;SDS011;46681;47.696;9.140;2023-03-23T06:11:23;4.00;;;3.33;;
60847;SDS011;46681;47.696;9.140;2023-03-23T06:13:57;3.63;;;3.33;;
60847;SDS011;46681;47.696;9.140;2023-03-23T06:16:37;3.77;;;3.07;;
60847;SDS011;46681;47.696;9.140;2023-03-23T06:19:02;3.40;;;3.10;;
60847;SDS011;46681;47.696;9.140;2023-03-23T06:21:45;3.20;;;2.90;;
60847;SDS011;46681;47.696;9.140;2023-03-23T06:24:13;3.50;;;3.13;;
60847;SDS011;46681;47.696;9.140;2023-03-23T06:26:46;5.33;;;3.50;;
60847;SDS011;46681;47.696;9.140;2023-03-23T06:29:18;7.07;;;3.90;;
60847;SDS011;46681;47.696;9.140;2023-03-23T06:32:05;7.60;;;3.33;;
60847;SDS011;46681;47.696;9.140;2023-03-23T06:34:37;4.07;;;3.67;;
60847;SDS011;46681;47.696;9.140;2023-03-23T06:37:05;5.53;;;3.27;;
60847;SDS011;46681;47.696;9.140;2023-03-23T06:39:38;5.90;;;4.03;;
60847;SDS011;46681;47.696;9.140;2023-03-23T06:42:08;3.53;;;3.23;;
60847;SDS011;46681;47.696;9.140;2023-03-23T06:44:44;3.80;;;3.43;;
60847;SDS011;46681;47.696;9.140;2023-03-23T06:47:12;4.60;;;3.20;;
60847;SDS011;46681;47.696;9.140;2023-03-23T06:49:40;3.47;;;3.27;;
60847;SDS011;46681;47.696;9.140;2023-03-23T06:52:23;5.07;;;3.37;;
60847;SDS011;46681;47.696;9.140;2023-03-23T06:54:55;5.30;;;3.20;;
60847;SDS011;46681;47.696;9.140;2023-03-23T06:57:28;5.93;;;3.43;;
60847;SDS011;46681;47.696;9.140;2023-03-23T06:59:57;3.67;;;3.27;;
60847;SDS011;46681;47.696;9.140;2023-03-23T07:02:37;4.20;;;3.20;;
60847;SDS011;46681;47.696;9.140;2023-03-23T07:05:04;3.50;;;3.03;;
60847;SDS011;46681;47.696;9.140;2023-03-23T07:07:44;3.57;;;3.27;;
60847;SDS011;46681;47.696;9.140;2023-03-23T07:10:13;3.63;;;3.33;;
60847;SDS011;46681;47.696;9.140;2023-03-23T07:12:39;3.03;;;2.83;;
60847;SDS011;46681;47.696;9.140;2023-03-23T07:15:05;4.90;;;3.10;;
60847;SDS011;46681;47.696;9.140;2023-03-23T07:17:43;3.47;;;3.17;;
60847;SDS011;46681;47.696;9.140;2023-03-23T07:20:26;3.30;;;3.00;;
60847;SDS011;46681;47.696;9.140;2023-03-23T07:22:55;6.47;;;3.07;;
60847;SDS011;46681;47.696;9.140;2023-03-23T07:25:24;4.43;;;3.47;;
60847;SDS011;46681;47.696;9.140;2023-03-23T07:27:57;5.87;;;3.20;;
60847;SDS011;46681;47.696;9.140;2023-03-23T07:30:26;6.07;;;3.10;;
60847;SDS011;46681;47.696;9.140;2023-03-23T07:32:58;2.87;;;2.60;;
60847;SDS011;46681;47.696;9.140;2023-03-23T07:35:33;3.80;;;3.03;;
60847;SDS011;46681;47.696;9.140;2023-03-23T07:38:07;4.67;;;2.80;;
60847;SDS011;46681;47.696;9.140;2023-03-23T07:40:55;3.97;;;2.93;;
60847;SDS011;46681;47.696;9.140;2023-03-23T07:43:35;3.67;;;3.10;;
60847;SDS011;46681;47.696;9.140;2023-03-23T07:46:22;3.00;;;2.80;;
60847;SDS011;46681;47.696;9.140;2023-03-23T07:48:50;4.90;;;3.20;;
60847;SDS011;46681;47.696;9.140;2023-03-23T07:51:20;2.93;;;2.60;;
60847;SDS011;46681;47.696;9.140;2023-03-23T07:53:52;3.10;;;2.53;;
60847;SDS011;46681;47.696;9.140;2023-03-23T07:56:34;2.90;;;2.60;;
60847;SDS011;46681;47.696;9.140;2023-03-23T07:59:06;3.37;;;2.57;;
60847;SDS011;46681;47.696;9.140;2023-03-23T08:01:48;2.63;;;2.43;;
60847;SDS011;46681;47.696;9.140;2023-03-23T08:04:21;2.07;;;1.97;;
60847;SDS011;46681;47.696;9.140;2023-03-23T08:06:52;3.03;;;2.30;;
60847;SDS011;46681;47.696;9.140;2023-03-23T08:09:26;2.40;;;2.20;;
60847;SDS011;46681;47.696;9.140;2023-03-23T08:12:01;3.13;;;2.37;;
60847;SDS011;46681;47.696;9.140;2023-03-23T08:14:33;2.77;;;2.23;;
60847;SDS011;46681;47.696;9.140;2023-03-23T08:17:00;3.17;;;2.50;;
60847;SDS011;46681;47.696;9.140;2023-03-23T08:19:27;2.60;;;2.43;;
60847;SDS011;46681;47.696;9.140;2023-03-23T08:22:07;3.37;;;2.30;;
60847;SDS011;46681;47.696;9.140;2023-03-23T08:24:34;2.97;;;2.17;;
60847;SDS011;46681;47.696;9.140;2023-03-23T08:27:11;2.37;;;2.20;;
60847;SDS011;46681;47.696;9.140;2023-03-23T08:29:44;2.67;;;2.47;;
60847;SDS011;46681;47.696;9.140;2023-03-23T08:32:12;2.53;;;2.33;;
60847;SDS011;46681;47.696;9.140;2023-03-23T08:34:49;4.03;;;2.73;;
60847;SDS011;46681;47.696;9.140;2023-03-23T08:37:25;2.40;;;2.20;;
60847;SDS011;46681;47.696;9.140;2023-03-23T08:39:55;3.53;;;2.27;;
60847;SDS011;46681;47.696;9.140;2023-03-23T08:42:30;2.10;;;2.00;;
60847;SDS011;46681;47.696;9.140;2023-03-23T08:45:01;2.30;;;2.03;;
60847;SDS011;46681;47.696;9.140;2023-03-23T08:47:51;4.73;;;2.50;;
60847;SDS011;46681;47.696;9.140;2023-03-23T08:50:20;3.63;;;2.27;;
60847;SDS011;46681;47.696;9.140;2023-03-23T08:52:54;3.00;;;2.10;;
60847;SDS011;46681;47.696;9.140;2023-03-23T08:55:24;3.53;;;2.47;;
60847;SDS011;46681;47.696;9.140;2023-03-23T08:58:00;3.27;;;2.60;;
60847;SDS011;46681;47.696;9.140;2023-03-23T09:00:27;2.30;;;2.10;;
60847;SDS011;46681;47.696;9.140;2023-03-23T09:02:55;4.20;;;2.00;;
60847;SDS011;46681;47.696;9.140;2023-03-23T09:05:24;3.17;;;2.10;;
60847;SDS011;46681;47.696;9.140;2023-03-23T09:08:08;2.40;;;2.20;;
60847;SDS011;46681;47.696;9.140;2023-03-23T09:10:36;3.10;;;1.93;;
60847;SDS011;46681;47.696;9.140;2023-03-23T09:13:13;1.87;;;1.77;;
60847;SDS011;46681;47.696;9.140;2023-03-23T09:15:43;2.20;;;2.10;;
60847;SDS011;46681;47.696;9.140;2023-03-23T09:18:17;3.00;;;1.90;;
60847;SDS011;46681;47.696;9.140;2023-03-23T09:20:51;2.43;;;2.00;;
60847;SDS011;46681;47.696;9.140;2023-03-23T09:23:30;1.63;;;1.53;;
60847;SDS011;46681;47.696;9.140;2023-03-23T09:26:11;2.23;;;2.03;;
60847;SDS011;46681;47.696;9.140;2023-03-23T09:28:44;2.67;;;2.10;;
60847;SDS011;46681;47.696;9.140;2023-03-23T09:31:12;2.03;;;1.83;;
60847;SDS011;46681;47.696;9.140;2023-03-23T09:33:49;2.00;;;1.70;;
60847;SDS011;46681;47.696;9.140;2023-03-23T09:36:25;1.87;;;1.77;;
60847;SDS011;46681;47.696;9.140;2023-03-23T09:39:00;2.27;;;2.07;;
60847;SDS011;46681;47.696;9.140;2023-03-23T09:50:33;2.47;;;2.27;;
60847;SDS011;46681;47.696;9.140;2023-03-23T09:53:27;1.90;;;1.80;;
60847;SDS011;46681;47.696;9.140;2023-03-23T09:56:16;1.87;;;1.77;;
60847;SDS011;46681;47.696;9.140;2023-03-23T09:59:23;3.90;;;1.83;;
60847;SDS011;46681;47.696;9.140;2023-03-23T10:05:11;2.30;;;1.60;;
60847;SDS011;46681;47.696;9.140;2023-03-23T10:08:18;1.77;;;1.67;;
60847;SDS011;46681;47.696;9.140;2023-03-23T10:17:32;2.63;;;1.70;;
60847;SDS011;46681;47.696;9.140;2023-03-23T10:20:47;2.57;;;1.70;;
60847;SDS011;46681;47.696;9.140;2023-03-23T10:29:24;2.13;;;1.80;;
60847;SDS011;46681;47.696;9.140;2023-03-23T10:32:43;1.83;;;1.70;;
60847;SDS011;46681;47.696;9.140;2023-03-23T10:35:24;1.80;;;1.67;;
60847;SDS011;46681;47.696;9.140;2023-03-23T10:38:15;2.00;;;1.90;;
60847;SDS011;46681;47.696;9.140;2023-03-23T10:40:52;1.70;;;1.60;;
60847;SDS011;46681;47.696;9.140;2023-03-23T10:43:42;3.57;;;2.00;;
60847;SDS011;46681;47.696;9.140;2023-03-23T10:49:10;1.70;;;1.60;;
60847;SDS011;46681;47.696;9.140;2023-03-23T10:52:48;1.37;;;1.33;;
60847;SDS011;46681;47.696;9.140;2023-03-23T10:55:08;1.60;;;1.50;;
60847;SDS011;46681;47.696;9.140;2023-03-23T10:57:36;1.53;;;1.20;;
60847;SDS011;46681;47.696;9.140;2023-03-23T11:00:26;1.53;;;1.43;;
60847;SDS011;46681;47.696;9.140;2023-03-23T11:03:05;1.53;;;1.40;;
60847;SDS011;46681;47.696;9.140;2023-03-23T11:11:48;2.00;;;1.63;;
60847;SDS011;46681;47.696;9.140;2023-03-23T11:14:25;1.80;;;1.70;;
60847;SDS011;46681;47.696;9.140;2023-03-23T11:17:19;1.90;;;1.60;;
60847;SDS011;46681;47.696;9.140;2023-03-23T11:20:11;1.77;;;1.67;;
60847;SDS011;46681;47.696;9.140;2023-03-23T11:25:52;2.73;;;1.47;;
60847;SDS011;46681;47.696;9.140;2023-03-23T11:29:01;1.57;;;1.47;;
60847;SDS011;46681;47.696;9.140;2023-03-23T11:32:19;1.50;;;1.40;;
60847;SDS011;46681;47.696;9.140;2023-03-23T11:40:26;3.47;;;1.50;;
60847;SDS011;46681;47.696;9.140;2023-03-23T11:43:23;1.50;;;1.40;;
60847;SDS011;46681;47.696;9.140;2023-03-23T11:58:28;2.10;;;1.33;;
60847;SDS011;46681;47.696;9.140;2023-03-23T12:07:43;2.17;;;1.30;;
60847;SDS011;46681;47.696;9.140;2023-03-23T12:10:53;2.10;;;1.30;;
60847;SDS011;46681;47.696;9.140;2023-03-23T12:44:07;1.50;;;1.40;;
60847;SDS011;46681;47.696;9.140;2023-03-23T12:49:37;1.40;;;1.37;;
60847;SDS011;46681;47.696;9.140;2023-03-23T12:55:35;1.73;;;1.50;;
60847;SDS011;46681;47.696;9.140;2023-03-23T12:58:30;1.60;;;1.33;;
60847;SDS011;46681;47.696;9.140;2023-03-23T13:01:32;3.13;;;1.30;;
60847;SDS011;46681;47.696;9.140;2023-03-23T13:07:33;4.30;;;1.50;;
60847;SDS011;46681;47.696;9.140;2023-03-23T13:12:50;2.07;;;1.20;;
60847;SDS011;46681;47.696;9.140;2023-03-23T13:18:49;1.50;;;1.40;;
60847;SDS011;46681;47.696;9.140;2023-03-23T13:24:33;1.40;;;1.30;;
60847;SDS011;46681;47.696;9.140;2023-03-23T13:27:55;1.60;;;1.50;;
60847;SDS011;46681;47.696;9.140;2023-03-23T13:30:55;3.23;;;1.37;;
60847;SDS011;46681;47.696;9.140;2023-03-23T13:40:16;2.17;;;1.70;;
60847;SDS011;46681;47.696;9.140;2023-03-23T13:43:31;1.70;;;1.60;;
60847;SDS011;46681;47.696;9.140;2023-03-23T13:51:47;1.93;;;1.80;;
60847;SDS011;46681;47.696;9.140;2023-03-23T13:54:42;1.53;;;1.43;;
60847;SDS011;46681;47.696;9.140;2023-03-23T13:57:37;1.57;;;1.47;;
60847;SDS011;46681;47.696;9.140;2023-03-23T14:06:13;1.50;;;1.40;;
60847;SDS011;46681;47.696;9.140;2023-03-23T14:11:59;1.73;;;1.63;;
60847;SDS011;46681;47.696;9.140;2023-03-23T14:14:55;2.33;;;1.83;;
60847;SDS011;46681;47.696;9.140;2023-03-23T14:17:50;1.80;;;1.70;;
60847;SDS011;46681;47.696;9.140;2023-03-23T14:20:42;3.07;;;2.10;;
60847;SDS011;46681;47.696;9.140;2023-03-23T14:23:32;1.60;;;1.50;;
60847;SDS011;46681;47.696;9.140;2023-03-23T14:26:25;2.60;;;2.00;;
60847;SDS011;46681;47.696;9.140;2023-03-23T14:28:55;2.00;;;1.83;;
60847;SDS011;46681;47.696;9.140;2023-03-23T14:31:43;4.77;;;1.83;;
60847;SDS011;46681;47.696;9.140;2023-03-23T14:34:18;2.73;;;1.70;;
60847;SDS011;46681;47.696;9.140;2023-03-23T14:37:10;2.00;;;1.70;;
60847;SDS011;46681;47.696;9.140;2023-03-23T14:39:51;2.20;;;1.90;;
60847;SDS011;46681;47.696;9.140;2023-03-23T14:42:35;1.70;;;1.60;;
60847;SDS011;46681;47.696;9.140;2023-03-23T14:45:31;2.77;;;1.70;;
60847;SDS011;46681;47.696;9.140;2023-03-23T14:48:00;1.90;;;1.80;;
60847;SDS011;46681;47.696;9.140;2023-03-23T14:50:55;1.77;;;1.67;;
60847;SDS011;46681;47.696;9.140;2023-03-23T14:57:02;2.10;;;1.90;;
60847;SDS011;46681;47.696;9.140;2023-03-23T15:00:03;3.00;;;1.73;;
60847;SDS011;46681;47.696;9.140;2023-03-23T15:02:37;1.83;;;1.70;;
60847;SDS011;46681;47.696;9.140;2023-03-23T15:05:36;2.23;;;2.10;;
60847;SDS011;46681;47.696;9.140;2023-03-23T15:08:38;1.67;;;1.53;;
60847;SDS011;46681;47.696;9.140;2023-03-23T15:11:39;3.37;;;1.97;;
60847;SDS011;46681;47.696;9.140;2023-03-23T15:14:20;2.20;;;1.63;;
60847;SDS011;46681;47.696;9.140;2023-03-23T15:17:18;1.50;;;1.40;;
60847;SDS011;46681;47.696;9.140;2023-03-23T15:19:56;2.20;;;1.67;;
60847;SDS011;46681;47.696;9.140;2023-03-23T15:22:44;5.00;;;1.57;;
60847;SDS011;46681;47.696;9.140;2023-03-23T15:25:37;1.77;;;1.67;;
60847;SDS011;46681;47.696;9.140;2023-03-23T15:31:00;2.03;;;1.50;;
60847;SDS011;46681;47.696;9.140;2023-03-23T15:33:42;2.07;;;1.87;;
60847;SDS011;46681;47.696;9.140;2023-03-23T15:36:25;1.70;;;1.50;;
60847;SDS011;46681;47.696;9.140;2023-03-23T15:39:18;2.30;;;1.60;;
60847;SDS011;46681;47.696;9.140;2023-03-23T15:42:25;3.03;;;1.73;;
60847;SDS011;46681;47.696;9.140;2023-03-23T15:45:27;2.47;;;1.90;;
60847;SDS011;46681;47.696;9.140;2023-03-23T15:49:17;2.70;;;1.57;;
60847;SDS011;46681;47.696;9.140;2023-03-23T15:51:53;2.10;;;1.70;;
60847;SDS011;46681;47.696;9.140;2023-03-23T15:54:48;1.73;;;1.63;;
60847;SDS011;46681;47.696;9.140;2023-03-23T15:57:16;1.87;;;1.77;;
60847;SDS011;46681;47.696;9.140;2023-03-23T16:00:12;3.70;;;1.80;;
60847;SDS011;46681;47.696;9.140;2023-03-23T16:03:14;1.80;;;1.70;;
60847;SDS011;46681;47.696;9.140;2023-03-23T16:06:00;1.80;;;1.70;;
60847;SDS011;46681;47.696;9.140;2023-03-23T16:11:43;3.90;;;1.57;;
60847;SDS011;46681;47.696;9.140;2023-03-23T16:14:35;2.73;;;1.70;;
60847;SDS011;46681;47.696;9.140;2023-03-23T16:17:15;1.60;;;1.50;;
60847;SDS011;46681;47.696;9.140;2023-03-23T16:19:56;1.50;;;1.37;;
60847;SDS011;46681;47.696;9.140;2023-03-23T16:22:24;3.43;;;1.60;;
60847;SDS011;46681;47.696;9.140;2023-03-23T16:24:57;1.57;;;1.47;;
60847;SDS011;46681;47.696;9.140;2023-03-23T16:27:41;3.53;;;1.40;;
60847;SDS011;46681;47.696;9.140;2023-03-23T16:30:53;5.97;;;2.00;;
60847;SDS011;46681;47.696;9.140;2023-03-23T16:36:54;2.47;;;1.70;;
60847;SDS011;46681;47.696;9.140;2023-03-23T16:39:20;6.80;;;1.47;;
60847;SDS011;46681;47.696;9.140;2023-03-23T16:42:22;2.00;;;1.67;;
60847;SDS011;46681;47.696;9.140;2023-03-23T16:44:49;1.37;;;1.27;;
60847;SDS011;46681;47.696;9.140;2023-03-23T16:47:29;1.53;;;1.40;;
60847;SDS011;46681;47.696;9.140;2023-03-23T16:50:08;4.90;;;1.83;;
60847;SDS011;46681;47.696;9.140;2023-03-23T16:52:37;1.37;;;1.27;;
60847;SDS011;46681;47.696;9.140;2023-03-23T16:55:17;2.50;;;1.53;;
60847;SDS011;46681;47.696;9.140;2023-03-23T16:58:17;1.60;;;1.50;;
60847;SDS011;46681;47.696;9.140;2023-03-23T17:00:48;2.43;;;1.80;;
60847;SDS011;46681;47.696;9.140;2023-03-23T17:03:27;1.83;;;1.57;;
60847;SDS011;46681;47.696;9.140;2023-03-23T17:06:12;2.07;;;1.57;;
60847;SDS011;46681;47.696;9.140;2023-03-23T17:08:38;1.73;;;1.60;;
60847;SDS011;46681;47.696;9.140;2023-03-23T17:11:19;1.63;;;1.53;;
60847;SDS011;46681;47.696;9.140;2023-03-23T17:13:45;4.13;;;1.53;;
60847;SDS011;46681;47.696;9.140;2023-03-23T17:16:15;1.40;;;1.40;;
60847;SDS011;46681;47.696;9.140;2023-03-23T17:18:44;2.00;;;1.40;;
60847;SDS011;46681;47.696;9.140;2023-03-23T17:21:09;2.37;;;1.70;;
60847;SDS011;46681;47.696;9.140;2023-03-23T17:23:42;2.20;;;1.77;;
60847;SDS011;46681;47.696;9.140;2023-03-23T17:26:20;1.83;;;1.53;;
60847;SDS011;46681;47.696;9.140;2023-03-23T17:28:45;1.37;;;1.30;;
60847;SDS011;46681;47.696;9.140;2023-03-23T17:31:19;1.83;;;1.70;;
60847;SDS011;46681;47.696;9.140;2023-03-23T17:33:57;1.60;;;1.50;;
60847;SDS011;46681;47.696;9.140;2023-03-23T17:36:41;1.43;;;1.33;;
60847;SDS011;46681;47.696;9.140;2023-03-23T17:39:33;2.40;;;1.43;;
60847;SDS011;46681;47.696;9.140;2023-03-23T17:42:04;1.60;;;1.50;;
60847;SDS011;46681;47.696;9.140;2023-03-23T17:45:04;1.60;;;1.50;;
60847;SDS011;46681;47.696;9.140;2023-03-23T17:47:44;1.50;;;1.40;;
60847;SDS011;46681;47.696;9.140;2023-03-23T17:50:18;1.57;;;1.47;;
60847;SDS011;46681;47.696;9.140;2023-03-23T17:52:54;1.70;;;1.60;;
60847;SDS011;46681;47.696;9.140;2023-03-23T17:55:24;2.57;;;1.60;;
60847;SDS011;46681;47.696;9.140;2023-03-23T17:58:12;1.60;;;1.50;;
60847;SDS011;46681;47.696;9.140;2023-03-23T18:00:41;1.60;;;1.50;;
60847;SDS011;46681;47.696;9.140;2023-03-23T18:03:10;1.73;;;1.63;;
60847;SDS011;46681;47.696;9.140;2023-03-23T18:05:36;1.60;;;1.50;;
60847;SDS011;46681;47.696;9.140;2023-03-23T18:08:15;1.50;;;1.43;;
60847;SDS011;46681;47.696;9.140;2023-03-23T18:10:42;2.17;;;1.67;;
60847;SDS011;46681;47.696;9.140;2023-03-23T18:13:08;3.30;;;2.03;;
60847;SDS011;46681;47.696;9.140;2023-03-23T18:15:36;1.80;;;1.70;;
60847;SDS011;46681;47.696;9.140;2023-03-23T18:18:02;1.93;;;1.83;;
60847;SDS011;46681;47.696;9.140;2023-03-23T18:20:33;1.77;;;1.67;;
60847;SDS011;46681;47.696;9.140;2023-03-23T18:23:06;2.13;;;1.93;;
60847;SDS011;46681;47.696;9.140;2023-03-23T18:25:46;1.67;;;1.57;;
60847;SDS011;46681;47.696;9.140;2023-03-23T18:28:14;1.80;;;1.70;;
60847;SDS011;46681;47.696;9.140;2023-03-23T18:30:46;1.70;;;1.60;;
60847;SDS011;46681;47.696;9.140;2023-03-23T18:33:21;1.70;;;1.60;;